createdAt,value
2023-03-29T00:01:06.103Z,24.35
2023-03-29T00:04:20.018Z,21.77
2023-03-29T00:07:33.770Z,22.80
2023-03-29T00:10:46.344Z,17.60
2023-03-29T00:13:58.493Z,22.23
2023-03-29T00:17:12.948Z,20.78
2023-03-29T00:20:25.763Z,21.90
2023-03-29T00:23:38.033Z,24.83
2023-03-29T00:26:50.198Z,22.28
2023-03-29T00:30:04.359Z,22.70
2023-03-29T00:33:16.695Z,22.83
2023-03-29T00:36:28.825Z,24.10
2023-03-29T00:39:44.149Z,23.95
2023-03-29T00:42:57.328Z,30.05
2023-03-29T00:46:11.330Z,28.25
2023-03-29T00:49:23.608Z,24.53
2023-03-29T00:52:39.029Z,33.45
2023-03-29T00:55:56.886Z,26.08
2023-03-29T00:59:11.879Z,29.35
2023-03-29T01:02:27.584Z,25.63
2023-03-29T01:05:44.645Z,25.33
2023-03-29T01:09:01.387Z,27.50
2023-03-29T01:12:20.977Z,26.93
2023-03-29T01:15:34.993Z,32.98
2023-03-29T01:18:47.236Z,27.65
2023-03-29T01:22:05.047Z,28.95
2023-03-29T01:25:25.565Z,26.95
2023-03-29T01:28:42.711Z,26.40
2023-03-29T01:31:59.239Z,30.40
2023-03-29T01:35:17.999Z,26.35
2023-03-29T01:38:34.868Z,28.45
2023-03-29T01:41:54.251Z,31.50
2023-03-29T01:45:14.069Z,29.68
2023-03-29T01:48:31.868Z,27.03
2023-03-29T01:51:48.374Z,44.83
2023-03-29T01:55:07.205Z,27.53
2023-03-29T01:58:22.725Z,28.33
2023-03-29T02:01:39.169Z,30.70
2023-03-29T02:04:56.351Z,27.58
2023-03-29T02:08:11.865Z,30.85
2023-03-29T02:11:26.188Z,28.70
2023-03-29T02:14:39.818Z,30.35
2023-03-29T02:17:53.561Z,27.48
2023-03-29T02:21:05.830Z,32.80
2023-03-29T02:24:22.513Z,27.90
2023-03-29T02:27:37.772Z,29.18
2023-03-29T02:30:57.392Z,28.70
2023-03-29T02:34:16.213Z,36.33
2023-03-29T02:37:30.573Z,33.63
2023-03-29T02:40:45.570Z,35.80
2023-03-29T02:43:58.776Z,33.80
2023-03-29T02:47:16.920Z,35.50
2023-03-29T02:50:30.601Z,35.18
2023-03-29T02:53:46.682Z,32.23
2023-03-29T02:57:04.054Z,31.65
2023-03-29T03:00:22.537Z,35.00
2023-03-29T03:03:36.109Z,32.43
2023-03-29T03:06:49.188Z,31.80
2023-03-29T03:10:01.309Z,32.00
2023-03-29T03:13:14.059Z,32.85
2023-03-29T03:16:26.634Z,37.58
2023-03-29T03:19:39.897Z,33.63
2023-03-29T03:22:54.267Z,34.13
2023-03-29T03:26:06.437Z,33.38
2023-03-29T03:29:19.873Z,31.83
2023-03-29T03:32:50.070Z,28.03
2023-03-29T03:36:22.992Z,29.45
2023-03-29T03:39:37.366Z,27.55
2023-03-29T03:42:50.064Z,30.08
2023-03-29T03:46:02.910Z,29.30
2023-03-29T03:49:16.871Z,27.03
2023-03-29T03:52:30.119Z,27.95
2023-03-29T03:55:43.188Z,30.23
2023-03-29T03:58:57.454Z,32.10
2023-03-29T04:02:10.714Z,26.60
2023-03-29T04:05:24.067Z,28.28
2023-03-29T04:08:37.041Z,28.98
2023-03-29T04:12:00.107Z,26.20
2023-03-29T04:15:15.009Z,33.85
2023-03-29T04:18:30.227Z,29.03
2023-03-29T04:21:46.345Z,34.73
2023-03-29T04:24:58.517Z,28.90
2023-03-29T04:28:17.506Z,28.20
2023-03-29T04:31:32.376Z,31.08
2023-03-29T04:35:02.607Z,26.60
2023-03-29T04:38:15.136Z,25.90
2023-03-29T04:41:29.292Z,25.58
2023-03-29T04:44:49.200Z,27.15
2023-03-29T04:48:06.003Z,28.65
2023-03-29T04:51:20.369Z,22.57
2023-03-29T04:54:34.698Z,28.35
2023-03-29T04:57:48.863Z,23.93
2023-03-29T05:01:06.085Z,28.80
2023-03-29T05:04:23.195Z,21.83
2023-03-29T05:07:37.612Z,25.03
2023-03-29T05:10:52.348Z,26.40
2023-03-29T05:14:07.197Z,20.15
2023-03-29T05:17:20.637Z,24.23
2023-03-29T05:20:34.088Z,25.13
2023-03-29T05:23:46.693Z,24.45
2023-03-29T05:27:02.834Z,26.38
2023-03-29T05:30:19.765Z,21.33
2023-03-29T05:33:37.244Z,25.63
2023-03-29T05:36:50.354Z,18.93
2023-03-29T05:40:08.068Z,23.30
2023-03-29T05:43:34.290Z,16.85
2023-03-29T05:54:08.801Z,20.48
2023-03-29T05:57:21.818Z,20.25
2023-03-29T06:00:36.924Z,21.77
2023-03-29T06:03:51.424Z,20.05
2023-03-29T06:07:05.909Z,19.53
2023-03-29T06:10:20.591Z,17.10
2023-03-29T06:13:37.286Z,16.55
2023-03-29T06:16:50.590Z,15.30
2023-03-29T06:20:06.500Z,16.13
2023-03-29T06:23:19.968Z,25.65
2023-03-29T06:26:33.160Z,15.20
2023-03-29T09:30:53.673Z,5.35
2023-03-29T09:34:09.453Z,6.60
2023-03-29T09:37:30.236Z,7.38
2023-03-29T09:40:49.181Z,9.90
2023-03-29T09:44:07.346Z,4.80
2023-03-29T09:47:28.387Z,4.55
2023-03-29T09:50:47.000Z,3.38
2023-03-29T09:54:01.252Z,3.98
2023-03-29T09:57:24.269Z,8.90
2023-03-29T10:00:36.957Z,4.75
2023-03-29T10:03:54.635Z,3.93
2023-03-29T10:07:08.874Z,5.78
2023-03-29T10:10:32.218Z,6.78
2023-03-29T10:13:53.837Z,4.43
2023-03-29T10:17:08.864Z,7.83
2023-03-29T10:20:25.049Z,6.23
2023-03-29T10:23:41.324Z,4.70
2023-03-29T10:26:57.128Z,5.47
2023-03-29T10:30:18.708Z,3.95
2023-03-29T10:33:35.459Z,6.50
2023-03-29T10:36:52.447Z,3.70
2023-03-29T10:43:26.797Z,4.25
2023-03-29T10:46:46.713Z,5.08
2023-03-29T10:50:04.608Z,4.95
2023-03-29T10:53:25.587Z,4.73
2023-03-29T10:56:52.371Z,6.70
2023-03-29T11:00:11.042Z,5.75
2023-03-29T11:03:51.679Z,5.20
2023-03-29T11:07:23.447Z,6.20
2023-03-29T11:10:46.229Z,5.05
2023-03-29T11:14:04.072Z,3.95
2023-03-29T11:17:28.296Z,3.08
2023-03-29T11:20:48.056Z,2.78
2023-03-29T11:24:10.376Z,5.75
2023-03-29T11:27:33.299Z,3.88
2023-03-29T11:30:52.224Z,4.98
2023-03-29T11:34:16.535Z,5.18
2023-03-29T11:37:35.985Z,3.70
2023-03-29T11:40:58.000Z,5.95
2023-03-29T11:44:16.659Z,4.03
2023-03-29T11:47:33.498Z,3.15
2023-03-29T11:50:52.649Z,4.40
2023-03-29T11:54:15.013Z,4.55
2023-03-29T11:57:33.452Z,4.90
2023-03-29T12:00:49.293Z,6.23
2023-03-29T12:04:05.795Z,5.58
2023-03-29T13:27:43.226Z,4.60
2023-03-29T13:34:42.125Z,5.25
2023-03-29T13:41:39.995Z,6.95
2023-03-29T13:44:54.717Z,6.63
2023-03-29T13:48:29.583Z,6.55
2023-03-29T13:51:47.140Z,7.38
2023-03-29T13:55:04.186Z,6.70
2023-03-29T14:04:53.781Z,4.58
2023-03-29T14:08:13.192Z,5.93
2023-03-29T14:11:31.525Z,6.80
2023-03-29T14:14:58.364Z,5.13
2023-03-29T14:18:05.623Z,4.55
2023-03-29T14:24:36.469Z,3.98
2023-03-29T14:27:49.564Z,6.50
2023-03-29T14:31:02.782Z,4.88
2023-03-29T14:34:26.971Z,7.85
2023-03-29T14:37:39.369Z,7.40
2023-03-29T14:40:53.542Z,5.00
2023-03-29T14:44:07.168Z,8.10
2023-03-29T14:47:28.321Z,6.85
2023-03-29T14:50:41.933Z,5.48
2023-03-29T14:53:55.293Z,9.00
2023-03-29T14:57:10.701Z,6.53
2023-03-29T15:00:35.253Z,6.15
2023-03-29T15:03:59.640Z,4.55
2023-03-29T15:07:12.632Z,7.28
2023-03-29T15:10:26.093Z,8.25
2023-03-29T15:13:39.046Z,6.80
2023-03-29T15:16:54.410Z,7.50
2023-03-29T15:20:15.986Z,9.23
2023-03-29T15:23:40.732Z,5.85
2023-03-29T15:27:05.760Z,7.35
2023-03-29T15:30:22.238Z,7.48
2023-03-29T15:33:41.863Z,5.50
2023-03-29T15:36:54.966Z,5.30
2023-03-29T15:40:09.933Z,4.40
2023-03-29T15:43:23.855Z,5.23
2023-03-29T15:46:36.482Z,6.65
2023-03-29T15:49:49.060Z,8.40
2023-03-29T15:53:14.170Z,6.80
2023-03-29T15:56:23.136Z,8.38
2023-03-29T15:59:36.675Z,7.98
2023-03-29T16:02:49.629Z,7.83
2023-03-29T16:06:04.848Z,7.95
2023-03-29T16:09:17.807Z,7.65
2023-03-29T16:12:33.378Z,37.53
2023-03-29T16:15:49.501Z,8.68
2023-03-29T16:19:01.804Z,7.40
2023-03-29T16:22:14.606Z,6.78
2023-03-29T16:25:27.696Z,8.33
2023-03-29T16:28:40.142Z,7.60
2023-03-29T16:31:53.601Z,6.20
2023-03-29T16:35:06.010Z,6.85
2023-03-29T16:38:18.517Z,7.43
2023-03-29T16:41:32.044Z,8.38
2023-03-29T16:44:44.754Z,7.08
2023-03-29T16:47:57.224Z,7.18
2023-03-29T16:51:11.425Z,6.85
2023-03-29T16:54:25.905Z,6.73
2023-03-29T16:57:39.065Z,6.65
2023-03-29T17:00:52.264Z,8.70
2023-03-29T17:04:04.543Z,10.13
2023-03-29T17:07:16.857Z,6.20
2023-03-29T17:10:29.847Z,12.73
2023-03-29T17:13:42.315Z,13.95
2023-03-29T17:16:54.666Z,11.33
2023-03-29T17:20:08.749Z,13.10
2023-03-29T17:23:21.346Z,11.58
2023-03-29T17:26:33.943Z,12.30
2023-03-29T17:29:46.242Z,14.73
2023-03-29T17:32:58.895Z,11.25
2023-03-29T17:36:13.890Z,11.90
2023-03-29T17:39:27.350Z,17.83
2023-03-29T17:42:39.958Z,14.20
2023-03-29T17:45:54.205Z,17.20
2023-03-29T17:49:07.060Z,16.63
2023-03-29T17:52:19.708Z,21.88
2023-03-29T17:55:32.050Z,22.33
2023-03-29T17:58:44.556Z,18.25
2023-03-29T18:01:57.726Z,25.35
2023-03-29T18:05:11.597Z,30.58
2023-03-29T18:08:24.358Z,30.00
2023-03-29T18:11:37.384Z,29.28
2023-03-29T18:14:49.897Z,25.75
2023-03-29T18:18:02.379Z,30.40
2023-03-29T18:21:15.656Z,30.33
2023-03-29T18:24:27.976Z,30.80
2023-03-29T18:27:40.297Z,32.00
2023-03-29T18:30:56.175Z,34.05
2023-03-29T18:34:08.603Z,39.60
2023-03-29T18:37:21.185Z,37.53
2023-03-29T18:40:34.903Z,32.83
2023-03-29T18:43:47.854Z,34.83
2023-03-29T18:47:00.368Z,31.08
2023-03-29T18:50:15.299Z,30.48
2023-03-29T18:53:27.893Z,31.40
2023-03-29T18:56:40.165Z,33.63
2023-03-29T18:59:52.808Z,30.23
2023-03-29T19:03:05.240Z,29.23
2023-03-29T19:06:18.028Z,26.88
2023-03-29T19:09:31.960Z,31.68
2023-03-29T19:12:44.771Z,30.83
2023-03-29T19:15:57.197Z,30.35
2023-03-29T19:19:10.938Z,33.18
2023-03-29T19:22:23.173Z,36.98
2023-03-29T19:25:36.909Z,30.15
2023-03-29T19:28:49.558Z,30.50
2023-03-29T19:32:01.909Z,31.63
2023-03-29T19:35:17.092Z,30.90
2023-03-29T19:38:29.712Z,38.40
2023-03-29T19:41:42.145Z,37.18
2023-03-29T19:44:54.775Z,30.03
2023-03-29T19:48:07.377Z,29.63
2023-03-29T19:51:20.044Z,31.43
2023-03-29T19:54:32.375Z,27.63
2023-03-29T19:57:44.678Z,27.85
2023-03-29T20:00:58.260Z,28.08
2023-03-29T20:04:12.060Z,24.98
2023-03-29T20:07:24.768Z,21.08
2023-03-29T20:10:37.446Z,19.50
2023-03-29T20:13:51.663Z,21.65
2023-03-29T20:17:04.684Z,18.53
2023-03-29T20:20:19.138Z,21.10
2023-03-29T20:23:31.799Z,19.78
2023-03-29T20:26:44.373Z,18.75
2023-03-29T20:29:56.725Z,19.00
2023-03-29T20:33:09.287Z,18.58
2023-03-29T20:36:23.329Z,22.18
2023-03-29T20:39:37.391Z,21.50
2023-03-29T20:42:49.925Z,21.05
2023-03-29T20:46:02.365Z,25.48
2023-03-29T20:49:16.492Z,25.35
2023-03-29T20:52:30.006Z,25.68
2023-03-29T20:55:43.028Z,28.60
2023-03-29T20:58:55.868Z,19.90
2023-03-29T21:02:08.917Z,26.95
2023-03-29T21:05:22.017Z,20.40
2023-03-29T21:08:34.727Z,22.53
2023-03-29T21:11:47.233Z,20.48
2023-03-29T21:15:00.622Z,22.85
2023-03-29T21:18:13.397Z,20.60
2023-03-29T21:21:26.325Z,23.63
2023-03-29T21:24:39.643Z,20.45
2023-03-29T21:27:52.075Z,22.60
2023-03-29T21:31:07.564Z,23.00
2023-03-29T21:34:20.086Z,25.85
2023-03-29T21:37:33.133Z,21.80
2023-03-29T21:40:45.505Z,24.88
2023-03-29T21:43:57.833Z,25.00
2023-03-29T21:47:10.209Z,22.25
2023-03-29T21:50:22.619Z,20.98
2023-03-29T21:53:35.002Z,19.08
2023-03-29T21:56:48.415Z,19.83
2023-03-29T22:00:00.982Z,20.58
2023-03-29T22:03:13.365Z,17.98
2023-03-29T22:06:25.712Z,24.40
2023-03-29T22:09:40.938Z,20.65
2023-03-29T22:12:53.501Z,21.60
2023-03-29T22:16:07.861Z,20.78
2023-03-29T22:19:20.242Z,25.15
2023-03-29T22:22:32.433Z,21.13
2023-03-29T22:25:45.039Z,21.38
2023-03-29T22:28:58.225Z,21.15
2023-03-29T22:32:11.506Z,21.93
2023-03-29T22:35:24.362Z,20.05
2023-03-29T22:38:37.354Z,20.33
2023-03-29T22:41:49.624Z,20.78
2023-03-29T22:45:01.746Z,21.85
2023-03-29T22:48:14.278Z,22.10
2023-03-29T22:51:27.451Z,20.58
2023-03-29T22:54:39.837Z,19.78
2023-03-29T22:57:51.958Z,21.13
2023-03-29T23:01:05.206Z,23.38
2023-03-29T23:04:18.214Z,20.00
2023-03-29T23:07:30.521Z,19.98
2023-03-29T23:10:42.638Z,19.65
2023-03-29T23:13:55.454Z,18.08
2023-03-29T23:17:09.512Z,19.78
2023-03-29T23:20:22.676Z,20.73
2023-03-29T23:23:35.806Z,16.65
2023-03-29T23:26:49.244Z,17.38
2023-03-29T23:30:01.940Z,18.28
2023-03-29T23:33:15.141Z,16.93
2023-03-29T23:36:29.422Z,17.65
2023-03-29T23:39:42.109Z,16.08
2023-03-29T23:42:56.583Z,15.63
2023-03-29T23:46:11.391Z,15.75
2023-03-29T23:49:24.479Z,17.15
2023-03-29T23:52:38.217Z,17.60
2023-03-29T23:55:51.550Z,14.33
2023-03-29T23:59:04.787Z,13.95
